Impacts METAR Board
IDs:

KMSP - Minneapolis-St Paul, MN, US

Updated at: 1000 UTC 15 Dec 2018
Potential Impact None Slight Moderate High
Time 14/22Z 14/23Z 15/00Z 15/01Z 15/02Z 15/03Z 15/04Z 15/05Z 15/06Z 15/07Z 15/08Z 15/09Z 15/10Z
Temp38 36 34 33 32 31 28 26 25 25 23 23 21
Dewpt26 26 25 25 24 24 23 22 22 23 21 22 20
Altim30.19 30.19 30.20 30.20 30.21 30.21 30.21 30.21 30.19 30.18 30.18 30.18 30.17
VIS10 10 10 10 10 10 10 10 10 9 8 7 7
CIG-- -- -- -- -- -- -- -- -- -- -- -- --
CoverFEWFEWFEWFEWFEWCLRCLRCLRCLRCLRCLRCLRCLR
FltCatVFRVFRVFRVFRVFRVFRVFRVFRVFRVFRVFRVFRVFR
WX--------------------------
WDir240220220001901601301401101301200
WSpd4 5 4 0 3 3 3 5 4 3 4 3 0
WGst-- -- -- -- -- -- -- -- -- -- -- -- --
Raw hourly METARs
KMSP 142153Z 24004KT 10SM FEW250 03/M03 A3019 RMK AO2 SLP232 T00331033
KMSP 142253Z 22005KT 10SM FEW250 02/M03 A3019 RMK AO2 SLP235 T00221033
KMSP 142353Z 22004KT 10SM FEW250 01/M04 A3020 RMK AO2 SLP237 4/004 T00111039 10039 20011 51010
KMSP 150053Z 00000KT 10SM FEW250 01/M04 A3020 RMK AO2 SLP238 T00061039
KMSP 150153Z VRB03KT 10SM FEW250 00/M04 A3021 RMK AO2 SLP242 T00001044
KMSP 150253Z 19003KT 10SM CLR M01/M04 A3021 RMK AO2 SLP243 T10061044 53005
KMSP 150353Z 16003KT 10SM CLR M02/M05 A3021 RMK AO2 SLP242 T10221050
KMSP 150453Z 13005KT 10SM CLR M03/M06 A3021 RMK AO2 SLP241 T10331056
KMSP 150553Z 14004KT 10SM CLR M04/M06 A3019 RMK AO2 SLP235 4/004 T10391056 10011 21039 400391050 58007
KMSP 150653Z 11003KT 9SM CLR M04/M05 A3018 RMK AO2 SLP230 T10391050
KMSP 150753Z 13004KT 8SM CLR M05/M06 A3018 RMK AO2 SLP230 T10501061
KMSP 150853Z 12003KT 7SM CLR M05/M06 A3018 RMK AO2 SLP231 T10501056 55003
KMSP 150953Z 00000KT 7SM CLR M06/M07 A3017 RMK AO2 SLP227 I1000 T10611067



Page loaded:  10:57 UTC  |   02:57 AM Pacific  |   03:57 AM Mountain  |   04:57 AM Central  |   05:57 AM Eastern

 

ADVISORIES

FORECASTS

FORECASTS

OBSERVATIONS

USER TOOLS

ABOUT US